Southwest Ranches, Florida
Current Conditions -  °F | °C
As of 12:02 AM on Sunday 23 Nov 2014 (Local Time) from KHWO Reporting Station
Broken Clouds Broken Clouds  
Wind Chill: 77°   Ceiling: 3900
Heat Index: 79°   Visibility: 10mi
Dew Point: 71°   Wind: 16mph
Humidity: 82%   Direction: 120°ESE
Pressure: 30.08"   Gusts: 26mph
Location:  26.0551°N, 80.3691°W
Report Text: KHWO 230502Z AUTO 12014G23KT 10SM FEW017 SCT030 BKN039 25/22 A3008 RMK AO2 T02500217
Loading
Personal Weather Stations






























Interactive Weather Map New forecast layout! Learn more

10-Day Weather Forecast

Advertisements
Track Severe Weather on mobile